Time;durP1;ratioP1;P1;durP2;ratioP2;P2;SDS_P1;SDS_P2;PMS_P1;PMS_P2;Temp;Humidity;BMP_temperature;BMP_pressure;BME280_temperature;BME280_humidity;BME280_pressure;Samples;Min_cycle;Max_cycle;Signal;HPM_P1;HPM_P2
2022/05/14 00:01:01;;;;;;;9.93;3.73;;;;;;;10.81;81.34;101821.06;5010465;28;20194;-72
2022/05/14 00:03:28;;;;;;;11.53;4.33;;;;;;;10.78;81.15;101821.81;5010871;28;20206;-72
2022/05/14 00:05:55;;;;;;;9.73;3.50;;;;;;;10.81;81.11;101818.50;5009577;28;20187;-72
2022/05/14 00:08:24;;;;;;;10.00;4.40;;;;;;;10.77;81.60;101811.50;5009076;28;20225;-71
2022/05/14 00:13:36;;;;;;;7.60;4.10;;;;;;;10.82;81.06;101804.84;5010479;28;20226;-72
2022/05/14 00:16:02;;;;;;;12.53;4.37;;;;;;;10.80;81.39;101802.28;5010803;28;20667;-72
2022/05/14 00:18:28;;;;;;;17.57;4.97;;;;;;;10.81;81.20;101791.19;5009742;28;20254;-71
2022/05/14 00:20:53;;;;;;;8.97;4.13;;;;;;;10.83;81.12;101793.81;5010606;28;20664;-71
2022/05/14 00:23:18;;;;;;;6.30;3.60;;;;;;;10.86;81.21;101806.69;5010265;28;20573;-72
2022/05/14 00:25:44;;;;;;;14.43;5.13;;;;;;;10.91;80.93;101807.72;5010870;28;20583;-72
2022/05/14 00:28:11;;;;;;;8.70;3.80;;;;;;;10.94;81.59;101807.84;5010296;28;20290;-72
2022/05/14 00:30:37;;;;;;;7.90;4.30;;;;;;;11.03;81.08;101798.78;5010173;28;20596;-71
2022/05/14 00:33:04;;;;;;;8.60;4.23;;;;;;;11.06;81.17;101803.13;5010347;28;20195;-72
2022/05/14 00:35:31;;;;;;;9.20;3.90;;;;;;;11.05;80.98;101799.69;5008558;28;20579;-72
2022/05/14 00:37:56;;;;;;;8.27;3.93;;;;;;;11.11;81.24;101793.91;5023506;28;20883;-72
2022/05/14 00:40:38;;;;;;;12.17;5.23;;;;;;;11.16;80.46;101794.91;5036284;28;20198;-72
2022/05/14 00:43:04;;;;;;;11.47;4.57;;;;;;;11.25;80.43;101785.81;5028028;28;21020;-72
2022/05/14 00:45:33;;;;;;;13.80;4.50;;;;;;;11.28;80.46;101770.53;5028190;28;20218;-71
2022/05/14 00:48:01;;;;;;;10.77;5.17;;;;;;;11.32;80.21;101784.31;5029601;28;20214;-72
2022/05/14 00:50:55;;;;;;;12.77;5.03;;;;;;;11.34;80.31;101786.09;5028573;28;20197;-72
2022/05/14 00:53:26;;;;;;;9.77;4.77;;;;;;;11.43;80.01;101788.09;5028535;28;20187;-72
2022/05/14 00:55:56;;;;;;;12.50;5.13;;;;;;;11.46;79.84;101776.22;5028450;28;20280;-72
2022/05/14 00:58:42;;;;;;;12.60;4.93;;;;;;;11.46;79.72;101781.34;5011188;28;20647;-71
2022/05/14 01:01:08;;;;;;;10.53;5.57;;;;;;;11.51;79.60;101774.66;5010227;28;20226;-71
2022/05/14 01:03:34;;;;;;;10.63;4.63;;;;;;;11.55;79.38;101779.06;5008177;28;20274;-72
2022/05/14 01:06:03;;;;;;;10.97;5.07;;;;;;;11.55;79.52;101776.50;5008720;28;20191;-72
2022/05/14 01:08:29;;;;;;;10.30;5.30;;;;;;;11.56;79.76;101775.69;5007885;28;20210;-72
2022/05/14 01:10:56;;;;;;;13.80;5.67;;;;;;;11.58;79.62;101771.47;5008410;28;20179;-72
2022/05/14 01:13:23;;;;;;;12.23;5.17;;;;;;;11.63;79.59;101761.38;5007990;28;20183;-72
2022/05/14 01:15:52;;;;;;;8.90;5.20;;;;;;;11.73;79.50;101768.50;5008544;28;20842;-72
2022/05/14 01:18:22;;;;;;;11.23;5.00;;;;;;;11.66;79.19;101767.47;5026984;28;20273;-72
2022/05/14 01:21:03;;;;;;;10.77;5.10;;;;;;;11.67;79.47;101773.47;5027876;28;20194;-72
2022/05/14 01:26:30;;;;;;;9.43;4.87;;;;;;;11.67;79.44;101768.34;5032519;28;20209;-72
2022/05/14 01:29:12;;;;;;;12.97;5.30;;;;;;;11.67;79.51;101776.91;5017763;28;22017;-72
2022/05/14 01:31:38;;;;;;;9.73;4.57;;;;;;;11.71;79.83;101775.31;5030441;28;20224;-72
2022/05/14 01:34:10;;;;;;;10.23;4.83;;;;;;;11.72;79.91;101782.19;5016045;28;20203;-72
2022/05/14 01:36:38;;;;;;;12.97;5.27;;;;;;;11.74;80.20;101771.13;5037879;28;20186;-72
2022/05/14 01:39:05;;;;;;;13.13;5.37;;;;;;;11.76;79.93;101763.47;5029850;28;20194;-72
2022/05/14 01:41:30;;;;;;;11.20;5.07;;;;;;;11.74;80.07;101763.44;5029858;28;20581;-72
2022/05/14 01:43:55;;;;;;;13.00;5.80;;;;;;;11.76;79.77;101766.91;5036086;28;20210;-72
2022/05/14 01:46:21;;;;;;;9.93;5.40;;;;;;;11.73;80.10;101763.38;5032971;28;20682;-71
2022/05/14 01:48:47;;;;;;;9.50;5.30;;;;;;;11.67;80.14;101760.66;5026646;28;20242;-71
2022/05/14 01:51:13;;;;;;;9.77;5.13;;;;;;;11.68;80.02;101762.38;5035933;28;20194;-71
2022/05/14 01:53:39;;;;;;;13.60;5.57;;;;;;;11.64;80.45;101763.09;5034164;28;20189;-71
2022/05/14 01:56:05;;;;;;;13.90;5.27;;;;;;;11.61;80.57;101770.72;5050521;28;20217;-71
2022/05/14 01:58:39;;;;;;;13.60;5.27;;;;;;;11.61;80.39;101773.31;5044191;28;20640;-72
2022/05/14 02:01:18;;;;;;;11.97;4.80;;;;;;;11.62;80.53;101777.59;5038697;28;20524;-72
2022/05/14 02:04:01;;;;;;;9.40;5.37;;;;;;;11.57;80.79;101764.59;5032373;28;20418;-72
2022/05/14 02:06:29;;;;;;;14.80;5.43;;;;;;;11.55;80.95;101763.69;5037697;28;20197;-72
2022/05/14 02:08:55;;;;;;;14.10;5.67;;;;;;;11.56;81.11;101762.84;5028676;28;20796;-72
2022/05/14 02:11:22;;;;;;;10.07;5.33;;;;;;;11.60;81.18;101764.72;5042434;28;20221;-72
2022/05/14 02:13:53;;;;;;;10.73;5.27;;;;;;;11.58;81.22;101770.59;5031368;28;20214;-72
2022/05/14 02:16:19;;;;;;;14.20;6.33;;;;;;;11.58;81.35;101760.34;5046224;28;20194;-72
2022/05/14 02:18:44;;;;;;;11.70;5.53;;;;;;;11.56;81.27;101765.41;5045823;28;20588;-72
2022/05/14 02:21:11;;;;;;;11.17;5.40;;;;;;;11.50;81.65;101759.22;5038377;28;20245;-72
2022/05/14 02:23:38;;;;;;;12.13;5.07;;;;;;;11.48;81.71;101763.44;5031958;28;20199;-72
2022/05/14 02:26:05;;;;;;;10.70;5.53;;;;;;;11.45;81.58;101756.53;5030639;28;20563;-72
2022/05/14 02:28:30;;;;;;;12.47;5.97;;;;;;;11.43;81.42;101755.59;5027735;28;20209;-72
2022/05/14 02:30:56;;;;;;;9.77;5.40;;;;;;;11.43;81.27;101757.31;5042754;28;20196;-71
2022/05/14 02:33:21;;;;;;;10.17;5.63;;;;;;;11.40;81.79;101752.09;5033773;28;20228;-72
2022/05/14 02:35:47;;;;;;;13.37;5.47;;;;;;;11.36;81.92;101757.94;5041251;28;20212;-72
2022/05/14 02:38:14;;;;;;;14.27;5.70;;;;;;;11.33;81.83;101761.28;5036226;28;20205;-72
2022/05/14 02:40:39;;;;;;;10.33;5.70;;;;;;;11.29;82.34;101764.56;5027252;28;20194;-72
2022/05/14 02:43:05;;;;;;;12.20;5.27;;;;;;;11.26;82.11;101767.06;5033342;28;20202;-72
2022/05/14 02:45:30;;;;;;;15.13;5.70;;;;;;;11.24;82.43;101775.53;5034385;28;20210;-71
2022/05/14 02:47:56;;;;;;;9.87;5.60;;;;;;;11.21;82.19;101776.31;5041268;28;20206;-72
2022/05/14 02:50:21;;;;;;;10.47;5.57;;;;;;;11.18;82.77;101773.63;5046484;28;20199;-72
2022/05/14 02:52:48;;;;;;;12.20;5.87;;;;;;;11.18;82.59;101780.44;5036789;28;20178;-72
2022/05/14 02:55:14;;;;;;;13.70;5.50;;;;;;;11.17;82.66;101776.13;5040492;28;20217;-71
2022/05/14 02:57:39;;;;;;;12.13;5.47;;;;;;;11.17;82.53;101773.56;5045822;28;20261;-72
2022/05/14 03:00:08;;;;;;;11.17;5.70;;;;;;;11.15;82.92;101778.66;5033952;28;20289;-72
2022/05/14 03:02:35;;;;;;;10.00;5.50;;;;;;;11.16;82.44;101784.66;5061099;28;20231;-72
2022/05/14 03:05:02;;;;;;;13.60;6.00;;;;;;;11.18;82.88;101773.63;5032820;28;20265;-72
2022/05/14 03:07:28;;;;;;;16.90;6.23;;;;;;;11.21;82.81;101776.31;5041509;28;20675;-72
2022/05/14 03:09:53;;;;;;;11.63;5.80;;;;;;;11.22;82.81;101779.72;5047777;28;20190;-72
2022/05/14 03:12:21;;;;;;;14.03;5.63;;;;;;;11.21;82.35;101773.75;5026662;28;20191;-72
2022/05/14 03:14:51;;;;;;;14.67;6.13;;;;;;;11.20;82.87;101773.69;5029055;28;20208;-71
2022/05/14 03:17:17;;;;;;;11.37;5.93;;;;;;;11.19;83.12;101782.16;5032223;28;20629;-72
2022/05/14 03:19:43;;;;;;;14.10;6.33;;;;;;;11.19;83.01;101780.50;5033272;28;20188;-71
2022/05/14 03:22:09;;;;;;;11.83;6.03;;;;;;;11.27;83.05;101788.41;5017670;28;20221;-72
2022/05/14 03:24:38;;;;;;;10.77;5.90;;;;;;;11.29;83.36;101781.66;5033713;28;20214;-72
2022/05/14 03:27:05;;;;;;;13.60;6.33;;;;;;;11.34;83.09;101788.66;5040749;28;20288;-71
2022/05/14 03:29:30;;;;;;;12.00;6.37;;;;;;;11.37;82.99;101785.31;5031030;28;20186;-72
2022/05/14 03:31:57;;;;;;;11.37;5.93;;;;;;;11.42;82.78;101784.66;5031300;28;20224;-71
2022/05/14 03:34:23;;;;;;;10.40;5.87;;;;;;;11.44;82.71;101784.69;5029307;28;20583;-72
2022/05/14 03:36:49;;;;;;;13.27;5.33;;;;;;;11.44;82.68;101793.28;5031999;28;20267;-72
2022/05/14 03:39:15;;;;;;;10.33;5.43;;;;;;;11.44;82.86;101790.72;5030841;28;20294;-72
2022/05/14 03:41:42;;;;;;;13.47;5.57;;;;;;;11.47;82.80;101792.50;5040663;28;20190;-72
2022/05/14 03:44:07;;;;;;;12.10;5.97;;;;;;;11.46;82.71;101799.31;5030318;28;20206;-72
2022/05/14 03:46:33;;;;;;;9.43;5.07;;;;;;;11.48;82.72;101799.38;5037447;28;20268;-71
2022/05/14 03:48:58;;;;;;;11.57;6.07;;;;;;;11.49;82.52;101801.09;5027811;28;20328;-73
2022/05/14 03:51:24;;;;;;;12.83;6.20;;;;;;;11.46;82.59;101799.31;5031462;28;20190;-72
2022/05/14 03:53:50;;;;;;;13.30;5.77;;;;;;;11.47;83.01;101808.72;5037251;28;20220;-72
2022/05/14 03:56:15;;;;;;;13.57;6.03;;;;;;;11.45;83.36;101807.84;5032102;28;20188;-72
2022/05/14 03:58:41;;;;;;;12.10;5.70;;;;;;;11.44;82.89;101805.22;5036360;28;20239;-72
2022/05/14 04:01:06;;;;;;;15.60;6.27;;;;;;;11.42;83.13;101806.84;5045005;28;20193;-72
2022/05/14 04:03:34;;;;;;;13.63;5.97;;;;;;;11.42;83.43;101806.84;5031286;28;20445;-72
2022/05/14 04:06:00;;;;;;;12.77;6.03;;;;;;;11.44;83.38;101807.78;5016102;28;20197;-71
2022/05/14 04:08:26;;;;;;;17.83;6.67;;;;;;;11.42;83.50;101809.41;5046458;28;20296;-72
2022/05/14 04:10:52;;;;;;;14.00;6.63;;;;;;;11.45;83.67;101812.06;5039933;28;20280;-72
2022/05/14 04:13:18;;;;;;;14.10;6.70;;;;;;;11.45;83.65;101818.09;5042156;28;20193;-71
2022/05/14 04:15:43;;;;;;;13.20;6.03;;;;;;;11.50;83.39;101819.09;5014366;28;20749;-72
2022/05/14 04:18:10;;;;;;;8.97;6.00;;;;;;;11.56;83.65;101821.00;5035501;28;20210;-72
2022/05/14 04:20:36;;;;;;;14.83;5.93;;;;;;;11.56;84.29;101819.28;5029706;28;20207;-72
2022/05/14 04:23:03;;;;;;;11.87;6.17;;;;;;;11.60;84.07;101828.84;5027715;28;20315;-72
2022/05/14 04:25:30;;;;;;;12.53;6.53;;;;;;;11.60;84.43;101823.72;5009185;28;20203;-72
2022/05/14 04:27:56;;;;;;;16.53;5.93;;;;;;;11.63;84.08;101836.66;5007065;28;20234;-72
2022/05/14 04:30:21;;;;;;;12.20;6.33;;;;;;;11.67;84.28;101829.91;4992374;28;20201;-72
2022/05/14 04:32:47;;;;;;;12.20;6.20;;;;;;;11.73;84.28;101832.66;5009120;28;20213;-72
2022/05/14 04:35:15;;;;;;;14.73;5.67;;;;;;;11.74;85.13;101830.16;5020607;28;20207;-72
2022/05/14 04:37:40;;;;;;;15.43;6.03;;;;;;;11.73;84.58;101823.28;5028560;28;20586;-72
2022/05/14 04:40:07;;;;;;;11.03;6.37;;;;;;;11.75;84.33;101839.56;5028722;28;20194;-72
2022/05/14 04:42:33;;;;;;;12.60;5.93;;;;;;;11.78;83.77;101847.38;5028737;28;20186;-72
2022/05/14 04:44:59;;;;;;;13.53;6.00;;;;;;;11.80;83.77;101855.97;5028234;28;20210;-72
2022/05/14 04:47:24;;;;;;;14.17;6.40;;;;;;;11.95;83.33;101843.63;5028014;28;20237;-72
2022/05/14 04:49:50;;;;;;;14.60;6.40;;;;;;;12.11;82.99;101852.63;5012089;28;20205;-72
2022/05/14 04:52:18;;;;;;;15.07;6.67;;;;;;;12.21;82.68;101844.41;5028222;28;20201;-72
2022/05/14 04:54:43;;;;;;;10.90;6.57;;;;;;;12.27;82.29;101850.56;5028404;28;20684;-72
2022/05/14 04:57:09;;;;;;;13.90;6.20;;;;;;;12.34;82.58;101851.59;5027124;28;20194;-72
2022/05/14 04:59:38;;;;;;;10.93;6.13;;;;;;;12.37;82.08;101854.25;5029738;28;20190;-72
2022/05/14 05:04:51;;;;;;;16.33;6.20;;;;;;;12.47;81.89;101864.84;5028347;28;20214;-72
2022/05/14 05:07:16;;;;;;;12.83;5.93;;;;;;;12.53;81.90;101853.88;5028172;28;20224;-72
2022/05/14 05:09:44;;;;;;;16.43;6.43;;;;;;;12.65;81.61;101859.34;5028081;28;20179;-72
2022/05/14 05:12:10;;;;;;;13.87;6.50;;;;;;;12.67;81.65;101858.53;5041644;28;20288;-72
2022/05/14 05:14:35;;;;;;;11.93;6.03;;;;;;;12.75;81.13;101863.88;5036827;28;20222;-71
2022/05/14 05:17:00;;;;;;;14.33;6.10;;;;;;;12.84;80.63;101867.59;5009730;28;20191;-72
2022/05/14 05:19:26;;;;;;;12.90;5.70;;;;;;;12.93;80.98;101872.97;5009250;28;20187;-72
2022/05/14 05:21:51;;;;;;;13.13;6.03;;;;;;;12.94;80.84;101868.69;5009985;28;20241;-72
2022/05/14 05:24:17;;;;;;;14.20;5.90;;;;;;;13.00;80.75;101873.16;5009395;28;20234;-72
2022/05/14 05:26:42;;;;;;;13.03;6.87;;;;;;;13.00;81.09;101874.03;5009672;28;20246;-72
2022/05/14 05:29:09;;;;;;;17.13;6.63;;;;;;;12.99;80.36;101874.00;5009557;28;20185;-73
2022/05/14 05:31:35;;;;;;;13.30;6.60;;;;;;;12.95;80.05;101884.16;5013255;28;20215;-72
2022/05/14 05:34:01;;;;;;;19.80;6.50;;;;;;;12.93;80.91;101884.09;5013704;28;20217;-71
2022/05/14 05:36:26;;;;;;;11.83;6.10;;;;;;;12.90;81.40;101888.31;5013289;28;20183;-72
2022/05/14 05:38:52;;;;;;;14.73;6.30;;;;;;;12.90;81.72;101893.44;5013567;28;20186;-72
2022/05/14 05:41:18;;;;;;;12.67;6.27;;;;;;;12.94;81.16;101891.81;5012847;28;20295;-72
2022/05/14 05:43:44;;;;;;;14.13;6.23;;;;;;;12.94;81.92;101889.25;5013580;28;20264;-72
2022/05/14 05:46:11;;;;;;;13.20;6.40;;;;;;;12.99;80.90;101886.84;5013312;28;20175;-72
2022/05/14 05:48:36;;;;;;;17.07;6.63;;;;;;;13.09;80.70;101892.28;5017550;28;20229;-72
2022/05/14 05:51:02;;;;;;;14.20;5.97;;;;;;;13.11;80.56;101888.03;5033357;28;20186;-72
2022/05/14 05:58:55;;;;;;;16.50;6.43;;;;;;;13.29;80.53;101885.94;5032543;28;20873;-72
2022/05/14 06:01:20;;;;;;;16.80;6.10;;;;;;;13.35;80.28;101892.94;5033119;28;20202;-72
2022/05/14 06:03:48;;;;;;;15.17;5.87;;;;;;;13.39;79.79;101900.75;5032350;28;20186;-72
2022/05/14 06:06:14;;;;;;;20.47;6.60;;;;;;;13.41;80.43;101896.53;5026923;28;20663;-71
2022/05/14 06:08:39;;;;;;;18.40;6.53;;;;;;;13.40;79.49;101893.91;5025241;28;20214;-72
2022/05/14 06:11:05;;;;;;;18.17;6.57;;;;;;;13.41;80.03;101895.66;5040412;28;20197;-72
2022/05/14 06:13:31;;;;;;;13.97;6.27;;;;;;;13.45;80.15;101888.03;5048842;28;20776;-72
2022/05/14 06:15:56;;;;;;;15.27;6.40;;;;;;;13.48;79.68;101895.84;5028618;28;20595;-72
2022/05/14 06:18:21;;;;;;;13.83;5.93;;;;;;;13.57;79.58;101896.06;5034658;28;20183;-72
2022/05/14 06:20:47;;;;;;;14.77;5.83;;;;;;;13.69;79.53;101898.94;5042670;28;20663;-71
2022/05/14 06:23:12;;;;;;;16.03;6.00;;;;;;;13.81;79.75;101899.22;5031381;28;20693;-72
2022/05/14 06:25:38;;;;;;;17.07;6.00;;;;;;;13.93;78.37;101896.94;5049541;28;20217;-72
2022/05/14 06:28:03;;;;;;;17.27;6.47;;;;;;;14.04;77.84;101895.44;5046000;28;20226;-72
2022/05/14 06:30:30;;;;;;;15.67;6.23;;;;;;;14.08;77.47;101893.84;5032850;28;20197;-72
2022/05/14 06:33:01;;;;;;;17.97;6.13;;;;;;;14.27;77.96;101899.44;5032132;28;20782;-72
2022/05/14 06:35:27;;;;;;;18.43;6.23;;;;;;;14.35;76.99;101902.16;5032297;28;20207;-72
2022/05/14 06:37:52;;;;;;;16.63;5.87;;;;;;;14.50;76.94;101907.66;5031907;28;20189;-72
2022/05/14 06:40:17;;;;;;;18.80;6.30;;;;;;;14.56;76.71;101907.78;5031993;28;20179;-72
2022/05/14 06:42:42;;;;;;;18.70;5.90;;;;;;;14.31;76.48;101897.81;5030642;28;20194;-72
2022/05/14 06:45:08;;;;;;;22.10;7.63;;;;;;;14.50;76.14;101905.09;5029572;28;20195;-71
2022/05/14 06:47:34;;;;;;;14.50;5.83;;;;;;;14.54;76.76;101907.75;5028733;28;20309;-72
2022/05/14 06:49:59;;;;;;;16.00;6.40;;;;;;;14.61;75.82;101914.78;5029012;28;20663;-72
2022/05/14 06:52:25;;;;;;;17.27;6.20;;;;;;;14.84;75.10;101910.94;5030228;28;20226;-72
2022/05/14 06:54:53;;;;;;;19.27;6.53;;;;;;;15.16;73.74;101916.69;5038649;28;20218;-72
2022/05/14 06:57:19;;;;;;;22.23;6.20;;;;;;;15.21;73.66;101915.94;5036816;28;20181;-72
2022/05/14 06:59:44;;;;;;;17.97;6.33;;;;;;;15.21;73.33;101920.22;5031580;28;20186;-72
2022/05/14 07:02:12;;;;;;;19.90;6.63;;;;;;;15.24;73.56;101917.69;5035627;28;20701;-72
2022/05/14 07:07:22;;;;;;;21.20;6.20;;;;;;;15.90;70.97;101906.78;5032878;28;20207;-72
2022/05/14 07:09:49;;;;;;;16.33;5.60;;;;;;;16.20;70.25;101920.13;5031040;28;20832;-72
2022/05/14 07:12:15;;;;;;;17.80;6.43;;;;;;;15.82;70.97;101908.38;5031841;28;20281;-72
2022/05/14 07:14:42;;;;;;;19.30;6.50;;;;;;;16.28;70.18;101908.19;5042895;28;20288;-71
2022/05/14 07:17:09;;;;;;;20.50;6.60;;;;;;;16.33;70.39;101906.53;5039397;28;20190;-72
2022/05/14 07:19:36;;;;;;;15.13;5.63;;;;;;;16.54;69.17;101913.72;5038756;28;20642;-72
2022/05/14 07:22:03;;;;;;;18.57;6.43;;;;;;;16.64;67.15;101905.22;5033676;28;20198;-72
2022/05/14 07:24:29;;;;;;;16.57;5.53;;;;;;;16.86;67.32;101909.78;5045656;28;20312;-73
2022/05/14 07:26:57;;;;;;;19.23;6.57;;;;;;;17.01;66.67;101913.41;5026734;28;20292;-72
2022/05/14 07:29:25;;;;;;;16.37;6.13;;;;;;;16.84;66.98;101909.78;5035593;28;20206;-72
2022/05/14 07:31:52;;;;;;;21.27;6.30;;;;;;;17.03;66.78;101908.22;5044856;28;20292;-72
2022/05/14 07:34:18;;;;;;;19.37;6.13;;;;;;;17.28;65.34;101908.50;5044602;28;20702;-72
2022/05/14 07:36:58;;;;;;;19.33;6.33;;;;;;;17.39;64.71;101914.69;5034001;28;20282;-72
2022/05/14 07:39:27;;;;;;;17.67;5.73;;;;;;;17.44;64.19;101913.00;5033315;28;20658;-72
2022/05/14 07:41:58;;;;;;;16.37;5.30;;;;;;;17.67;64.52;101910.56;5034274;28;20837;-71
2022/05/14 07:44:27;;;;;;;15.07;5.57;;;;;;;17.74;63.88;101910.63;5035750;28;20753;-72
2022/05/14 07:46:53;;;;;;;19.03;6.13;;;;;;;18.05;63.12;101914.31;5035768;28;20344;-72
2022/05/14 07:49:21;;;;;;;18.17;6.30;;;;;;;17.40;65.42;101916.41;5049415;28;20193;-72
2022/05/14 07:51:48;;;;;;;16.60;6.13;;;;;;;17.52;65.49;101913.06;5040047;28;20550;-72
2022/05/14 07:54:13;;;;;;;16.90;5.67;;;;;;;17.00;65.31;101911.66;5030829;28;20211;-72
2022/05/14 07:56:40;;;;;;;13.63;5.47;;;;;;;17.49;64.80;101910.44;5033407;28;20195;-72
2022/05/14 07:59:05;;;;;;;21.40;6.07;;;;;;;17.77;64.61;101912.41;5037277;28;20564;-72
2022/05/14 08:01:31;;;;;;;17.07;5.60;;;;;;;18.09;63.49;101910.88;5034062;28;20186;-72
2022/05/14 08:03:56;;;;;;;20.20;5.87;;;;;;;18.62;63.30;101906.84;5034093;28;20206;-72
2022/05/14 08:06:22;;;;;;;20.47;5.37;;;;;;;18.80;61.02;101910.38;5028969;28;20576;-72
2022/05/14 08:08:48;;;;;;;14.97;4.80;;;;;;;18.78;59.59;101906.91;5037941;28;20208;-72
2022/05/14 08:11:13;;;;;;;17.27;5.30;;;;;;;18.62;59.79;101914.63;5035515;28;20228;-72
2022/05/14 08:13:40;;;;;;;14.30;4.70;;;;;;;18.99;60.38;101906.09;5038840;28;20929;-71
2022/05/14 08:16:05;;;;;;;13.20;4.33;;;;;;;19.43;58.23;101912.28;5038717;28;20824;-72
2022/05/14 08:18:32;;;;;;;15.73;5.00;;;;;;;18.75;59.02;101913.81;5047834;28;20184;-72
2022/05/14 08:24:29;;;;;;;13.50;4.57;;;;;;;18.75;58.36;101917.28;5038466;28;20288;-71
2022/05/14 08:26:27;;;;;;;11.80;4.30;;;;;;;19.10;57.50;101910.44;5028435;28;20184;-72
2022/05/14 08:28:52;;;;;;;14.90;4.70;;;;;;;18.88;57.32;101910.41;5035401;28;20224;-73
2022/05/14 08:31:17;;;;;;;12.97;4.23;;;;;;;19.10;57.04;101907.84;5034005;28;20198;-73
2022/05/14 08:33:42;;;;;;;12.83;4.20;;;;;;;19.42;55.76;101906.19;5020789;28;20718;-72
2022/05/14 08:36:08;;;;;;;14.23;4.40;;;;;;;19.36;55.55;101906.19;5034624;28;20201;-74
2022/05/14 08:38:33;;;;;;;13.73;4.20;;;;;;;19.51;53.51;101901.00;5038088;28;20198;-73
2022/05/14 08:40:59;;;;;;;15.23;4.20;;;;;;;19.69;53.63;101900.13;5041364;28;20189;-73
2022/05/14 08:43:32;;;;;;;13.27;4.30;;;;;;;19.90;53.09;101906.16;5036616;28;20267;-73
2022/05/14 08:45:59;;;;;;;12.40;3.90;;;;;;;19.35;53.36;101916.59;5012513;28;20210;-73
2022/05/14 08:48:32;;;;;;;10.97;3.93;;;;;;;19.19;54.26;101917.38;5032022;28;20233;-73
2022/05/14 08:51:04;;;;;;;13.30;3.57;;;;;;;19.09;54.38;101918.22;5030609;28;20709;-73
2022/05/14 08:53:32;;;;;;;10.47;3.37;;;;;;;18.86;54.19;101919.91;5031693;28;20188;-73
2022/05/14 08:56:23;;;;;;;9.63;3.17;;;;;;;18.73;53.17;101918.13;5034035;28;20207;-72
2022/05/14 08:59:29;;;;;;;10.23;3.53;;;;;;;18.58;52.92;101931.06;5028332;28;20200;-73
2022/05/14 09:02:04;;;;;;;13.17;3.67;;;;;;;19.17;52.91;101919.13;5026931;28;20217;-73
2022/05/14 09:04:30;;;;;;;12.10;3.83;;;;;;;19.12;53.18;101928.63;5040441;28;20209;-72
2022/05/14 09:06:56;;;;;;;10.97;3.63;;;;;;;20.19;50.39;101916.53;5029506;28;20887;-73
2022/05/14 09:09:21;;;;;;;10.87;3.70;;;;;;;20.57;49.35;101912.06;5037211;28;20194;-73
2022/05/14 09:11:59;;;;;;;10.00;3.63;;;;;;;20.27;48.99;101920.00;5027547;28;20675;-73
2022/05/14 09:14:25;;;;;;;11.80;3.57;;;;;;;20.50;48.26;101912.97;5033777;28;20219;-72
2022/05/14 09:16:59;;;;;;;10.33;3.27;;;;;;;20.75;48.32;101925.00;5029446;28;20202;-73
2022/05/14 09:19:35;;;;;;;11.43;3.33;;;;;;;20.55;49.37;101935.50;5032114;28;20190;-72
2022/05/14 09:22:09;;;;;;;9.93;3.23;;;;;;;20.33;49.87;101930.38;5026019;28;20556;-73
2022/05/14 09:24:40;;;;;;;9.53;3.30;;;;;;;20.26;47.76;101931.28;5015023;28;20631;-72
2022/05/14 09:27:13;;;;;;;10.77;3.17;;;;;;;20.45;49.64;101932.94;5032114;28;20624;-72
2022/05/14 09:29:44;;;;;;;7.40;3.00;;;;;;;19.94;50.69;101933.88;5026036;28;20833;-73
2022/05/14 09:32:20;;;;;;;11.63;3.30;;;;;;;20.48;49.63;101941.59;5016927;28;20637;-72
2022/05/14 09:34:47;;;;;;;8.90;2.90;;;;;;;21.00;46.31;101942.28;5009392;28;20220;-72
2022/05/14 09:37:18;;;;;;;8.07;2.97;;;;;;;21.00;45.89;101945.75;5037586;28;20575;-72
2022/05/14 09:40:08;;;;;;;8.20;3.40;;;;;;;21.28;45.94;101947.28;5032433;28;20198;-72
2022/05/14 09:42:46;;;;;;;9.83;3.00;;;;;;;20.36;47.75;101948.59;5043095;28;20236;-72
2022/05/14 09:45:33;;;;;;;8.93;2.60;;;;;;;19.75;49.58;101954.69;5044205;28;20209;-73
2022/05/14 09:48:21;;;;;;;8.67;3.30;;;;;;;19.45;49.66;101955.56;5028163;28;20210;-71
2022/05/14 09:50:55;;;;;;;7.60;3.00;;;;;;;19.50;50.77;101958.16;5033473;28;20190;-72
2022/05/14 09:53:31;;;;;;;7.13;2.83;;;;;;;19.49;50.00;101959.03;5044192;28;20219;-72
2022/05/14 09:56:06;;;;;;;8.60;3.27;;;;;;;19.51;50.36;101952.09;5022418;28;20228;-72
2022/05/14 09:58:46;;;;;;;8.17;2.43;;;;;;;19.64;51.64;101952.13;5030428;28;20193;-71
2022/05/14 10:01:34;;;;;;;9.37;2.73;;;;;;;19.77;51.04;101960.78;5029682;28;20201;-72
2022/05/14 10:04:41;;;;;;;10.90;3.10;;;;;;;20.53;49.33;101955.47;5028154;28;20211;-73
2022/05/14 10:07:22;;;;;;;7.80;3.13;;;;;;;20.22;49.18;101963.38;5026685;28;20214;-72
2022/05/14 10:10:28;;;;;;;5.77;2.70;;;;;;;19.89;49.76;101961.63;5036188;28;20194;-73
2022/05/14 10:13:02;;;;;;;10.37;3.23;;;;;;;19.45;50.73;101960.78;5027253;28;20655;-72
2022/05/14 10:15:47;;;;;;;8.10;3.17;;;;;;;19.44;50.51;101966.81;5028463;28;20260;-72
2022/05/14 10:18:31;;;;;;;9.83;2.90;;;;;;;19.61;51.13;101974.63;5031598;28;20202;-72
2022/05/14 10:21:11;;;;;;;12.60;3.40;;;;;;;19.77;49.93;101963.38;5031746;28;20228;-72
2022/05/14 10:27:32;;;;;;;9.23;2.87;;;;;;;20.08;48.62;101975.53;4955211;28;20242;-72
2022/05/14 10:30:22;;;;;;;9.00;3.07;;;;;;;20.23;49.10;101972.91;5005455;28;20238;-72
2022/05/14 10:32:59;;;;;;;7.93;3.10;;;;;;;19.79;49.84;101970.31;5012867;28;20199;-73
2022/05/14 10:35:42;;;;;;;10.43;3.10;;;;;;;19.87;49.84;101976.38;5012131;28;20202;-72
2022/05/14 10:38:20;;;;;;;12.50;3.53;;;;;;;19.45;50.29;101984.16;5021826;28;20209;-72
2022/05/14 10:40:50;;;;;;;8.53;2.87;;;;;;;19.45;50.79;101976.38;5032150;28;20647;-72
2022/05/14 10:43:48;;;;;;;9.13;3.30;;;;;;;19.59;51.32;101982.44;5031272;28;20558;-72
2022/05/14 10:46:19;;;;;;;11.50;3.50;;;;;;;19.82;49.50;101978.13;5031764;28;20633;-72
2022/05/14 10:48:57;;;;;;;10.43;2.97;;;;;;;20.00;49.51;101972.88;5031917;28;20214;-72
2022/05/14 10:51:29;;;;;;;13.20;3.33;;;;;;;19.79;48.97;101982.44;5032045;28;20332;-72
2022/05/14 10:53:56;;;;;;;7.40;2.53;;;;;;;19.64;49.22;101985.03;5031549;28;20206;-72
2022/05/14 10:56:33;;;;;;;8.43;3.00;;;;;;;19.52;49.82;101988.50;5031453;28;20178;-73
2022/05/14 10:59:11;;;;;;;8.77;3.00;;;;;;;19.40;51.00;101987.59;5030259;28;20553;-72
2022/05/14 11:01:54;;;;;;;11.70;3.30;;;;;;;19.26;50.92;101992.75;5036133;28;20189;-72
2022/05/14 11:04:42;;;;;;;9.63;3.20;;;;;;;19.53;49.96;101990.22;5048237;28;20237;-72
2022/05/14 11:07:11;;;;;;;9.27;3.30;;;;;;;19.88;50.89;101992.84;5051719;28;20280;-72
2022/05/14 11:09:43;;;;;;;9.57;3.00;;;;;;;19.78;49.51;101996.31;5051116;28;20197;-72
2022/05/14 11:12:26;;;;;;;9.60;4.03;;;;;;;19.89;49.49;101998.03;5031125;28;20226;-72
2022/05/14 11:14:56;;;;;;;10.17;3.40;;;;;;;19.27;50.79;101998.84;5010109;28;20218;-72
2022/05/14 11:17:32;;;;;;;10.17;3.40;;;;;;;19.66;50.51;102004.97;5010713;28;20174;-72
2022/05/14 11:20:04;;;;;;;7.40;2.57;;;;;;;20.01;47.63;102000.66;5011209;28;20187;-72
2022/05/14 11:22:36;;;;;;;7.53;2.83;;;;;;;20.12;48.48;101992.84;5010491;28;20191;-73
2022/05/14 11:25:16;;;;;;;9.43;2.93;;;;;;;20.67;47.35;101997.94;5009994;28;20238;-72
2022/05/14 11:27:52;;;;;;;10.73;3.17;;;;;;;20.70;47.00;102004.88;5010287;28;20253;-72
2022/05/14 11:30:50;;;;;;;6.73;2.93;;;;;;;20.46;47.67;101999.75;5030751;28;20224;-73
2022/05/14 11:33:23;;;;;;;8.67;2.70;;;;;;;20.43;47.70;102007.53;5031542;28;20719;-72
2022/05/14 11:35:51;;;;;;;10.47;3.23;;;;;;;20.19;48.15;102010.19;5031428;28;20417;-73
2022/05/14 11:38:34;;;;;;;6.93;3.00;;;;;;;20.00;48.74;102016.25;5030739;28;20644;-73
2022/05/14 11:41:14;;;;;;;9.13;2.67;;;;;;;19.93;49.39;102015.38;5031272;28;20166;-72
2022/05/14 11:43:42;;;;;;;6.80;2.63;;;;;;;20.10;49.05;102015.41;5030736;28;20197;-72
2022/05/14 11:46:32;;;;;;;9.13;2.77;;;;;;;20.34;48.91;102011.03;5030009;28;20191;-73
2022/05/14 11:49:12;;;;;;;7.93;3.27;;;;;;;20.41;48.76;102019.72;5029041;28;20301;-72
2022/05/14 11:51:47;;;;;;;6.53;2.80;;;;;;;20.76;48.44;102016.13;5029650;28;20205;-72
2022/05/14 11:54:17;;;;;;;10.40;3.00;;;;;;;20.30;47.91;102019.72;5029074;28;20229;-72